Time;durP1;ratioP1;P1;durP2;ratioP2;P2;SDS_P1;SDS_P2;PMS_P1;PMS_P2;Temp;Humidity;BMP_temperature;BMP_pressure;BME280_temperature;BME280_humidity;BME280_pressure;Samples;Min_cycle;Max_cycle;Signal;HPM_P1;HPM_P2
2022/07/24 00:01:25;;;;;;;0.40;0.40;;;15.10;99.90;;;;;;5073580;28;20240;-74
2022/07/24 00:04:13;;;;;;;0.50;0.50;;;15.10;99.90;;;;;;5075848;28;20289;-74
2022/07/24 00:07:01;;;;;;;0.50;0.50;;;15.00;99.90;;;;;;5075391;28;20701;-73
2022/07/24 00:09:50;;;;;;;0.50;0.50;;;15.00;99.90;;;;;;5075227;28;20427;-76
2022/07/24 00:12:39;;;;;;;0.40;0.40;;;15.00;99.90;;;;;;5074347;28;20782;-75
2022/07/24 00:15:27;;;;;;;0.50;0.50;;;14.90;99.90;;;;;;5074533;28;20205;-72
2022/07/24 00:18:16;;;;;;;0.40;0.40;;;14.90;99.90;;;;;;5075428;28;20204;-74
2022/07/24 00:21:05;;;;;;;0.50;0.50;;;14.90;99.90;;;;;;5080127;28;20853;-73
2022/07/24 00:23:54;;;;;;;0.50;0.50;;;14.80;99.90;;;;;;5075049;28;20424;-74
2022/07/24 00:26:43;;;;;;;0.50;0.50;;;14.80;99.90;;;;;;5074796;28;20204;-73
2022/07/24 00:29:31;;;;;;;0.40;0.40;;;14.80;99.90;;;;;;5075659;28;20232;-71
2022/07/24 00:32:19;;;;;;;0.50;0.50;;;14.70;99.90;;;;;;5074955;28;20774;-72
2022/07/24 00:35:09;;;;;;;0.50;0.50;;;14.70;99.90;;;;;;5075341;28;20950;-72
2022/07/24 00:37:57;;;;;;;0.40;0.40;;;14.60;99.90;;;;;;5074895;28;21096;-72
2022/07/24 00:40:45;;;;;;;0.40;0.40;;;14.60;99.90;;;;;;5079567;28;20427;-72
2022/07/24 00:43:34;;;;;;;0.50;0.50;;;14.60;99.90;;;;;;5074402;28;20734;-73
2022/07/24 00:46:22;;;;;;;0.40;0.40;;;14.50;99.90;;;;;;5078166;28;20205;-76
2022/07/24 00:49:13;;;;;;;0.50;0.50;;;14.50;99.90;;;;;;5076719;28;20582;-69
2022/07/24 00:52:07;;;;;;;0.50;0.50;;;14.50;99.90;;;;;;5077578;28;20227;-74
2022/07/24 00:54:56;;;;;;;0.50;0.50;;;14.50;99.90;;;;;;5079338;28;20204;-74
2022/07/24 00:57:46;;;;;;;0.40;0.40;;;14.40;99.90;;;;;;5074279;28;20467;-73
2022/07/24 01:00:35;;;;;;;0.40;0.40;;;14.40;99.90;;;;;;5079993;28;20438;-75
2022/07/24 01:03:23;;;;;;;0.50;0.50;;;14.30;99.90;;;;;;5075374;28;20970;-76
2022/07/24 01:06:11;;;;;;;0.50;0.50;;;14.30;99.90;;;;;;5075860;28;20197;-74
2022/07/24 01:09:02;;;;;;;0.40;0.40;;;14.30;99.90;;;;;;5074426;28;20283;-74
2022/07/24 01:11:52;;;;;;;0.50;0.50;;;14.20;99.90;;;;;;5074978;28;20224;-71
2022/07/24 01:14:40;;;;;;;0.40;0.40;;;14.20;99.90;;;;;;5076635;28;20419;-72
2022/07/24 01:17:30;;;;;;;0.50;0.50;;;14.20;99.90;;;;;;5078729;28;20466;-73
2022/07/24 01:20:18;;;;;;;0.40;0.40;;;14.10;99.90;;;;;;5075215;28;20197;-73
2022/07/24 01:23:08;;;;;;;0.50;0.50;;;14.10;99.90;;;;;;5074218;28;20447;-75
2022/07/24 01:25:56;;;;;;;0.40;0.40;;;14.10;99.90;;;;;;5075276;28;20799;-74
2022/07/24 01:28:45;;;;;;;0.50;0.50;;;14.10;99.90;;;;;;5077654;28;20423;-74
2022/07/24 01:31:33;;;;;;;0.40;0.40;;;14.00;99.90;;;;;;5077255;28;20447;-74
2022/07/24 01:34:21;;;;;;;0.50;0.50;;;14.00;99.90;;;;;;5073709;28;20266;-72
2022/07/24 01:37:09;;;;;;;0.47;0.47;;;14.00;99.90;;;;;;5078169;28;20470;-74
2022/07/24 01:39:59;;;;;;;0.50;0.50;;;13.90;99.90;;;;;;5075839;28;20420;-74
2022/07/24 01:42:47;;;;;;;0.50;0.50;;;13.90;99.90;;;;;;5075660;28;20231;-72
2022/07/24 01:45:36;;;;;;;0.50;0.50;;;13.80;99.90;;;;;;5075727;28;20432;-72
2022/07/24 01:48:24;;;;;;;0.40;0.40;;;13.80;99.90;;;;;;5077004;28;20490;-73
2022/07/24 01:51:12;;;;;;;0.50;0.50;;;13.80;99.90;;;;;;5069037;28;20447;-75
2022/07/24 01:54:02;;;;;;;0.50;0.50;;;13.80;99.90;;;;;;5072843;28;20434;-74
2022/07/24 01:56:51;;;;;;;0.50;0.50;;;13.70;99.90;;;;;;5075415;28;20495;-74
2022/07/24 01:59:39;;;;;;;0.40;0.40;;;13.70;99.90;;;;;;5076928;28;20419;-73
2022/07/24 02:02:28;;;;;;;0.47;0.47;;;13.70;99.90;;;;;;5076009;28;20853;-70
2022/07/24 02:05:17;;;;;;;0.50;0.50;;;13.70;99.90;;;;;;5075540;28;20434;-75
2022/07/24 02:08:05;;;;;;;0.50;0.50;;;13.60;99.90;;;;;;5076108;28;20431;-76
2022/07/24 02:10:54;;;;;;;0.50;0.50;;;13.60;99.90;;;;;;5076453;28;20484;-77
2022/07/24 02:13:44;;;;;;;0.50;0.50;;;13.60;99.90;;;;;;5075465;28;20469;-75
2022/07/24 02:16:33;;;;;;;0.40;0.40;;;13.60;99.90;;;;;;5075725;28;20727;-75
2022/07/24 02:19:23;;;;;;;0.50;0.50;;;13.60;99.90;;;;;;5076961;28;20918;-72
2022/07/24 02:22:11;;;;;;;0.50;0.50;;;13.50;99.90;;;;;;5075338;28;20677;-75
2022/07/24 02:24:59;;;;;;;0.40;0.40;;;13.50;99.90;;;;;;5075729;28;20856;-74
2022/07/24 02:27:47;;;;;;;0.40;0.40;;;13.50;99.90;;;;;;5081079;28;20197;-72
2022/07/24 02:30:37;;;;;;;0.50;0.50;;;13.50;99.90;;;;;;5076223;28;21008;-73
2022/07/24 02:33:25;;;;;;;0.40;0.40;;;13.40;99.90;;;;;;5076728;28;20434;-74
2022/07/24 02:36:13;;;;;;;0.50;0.50;;;13.50;99.90;;;;;;5077280;28;20431;-75
2022/07/24 02:39:01;;;;;;;0.40;0.40;;;13.40;99.90;;;;;;5079995;28;20415;-72
2022/07/24 02:41:50;;;;;;;0.40;0.40;;;13.40;99.90;;;;;;5079145;28;20865;-74
2022/07/24 02:44:38;;;;;;;0.50;0.50;;;13.50;99.90;;;;;;5079845;28;20431;-76
2022/07/24 02:47:28;;;;;;;0.47;0.47;;;13.40;99.90;;;;;;5081189;28;20479;-76
2022/07/24 02:50:18;;;;;;;0.50;0.50;;;13.40;99.90;;;;;;5079225;28;20802;-71
2022/07/24 02:53:06;;;;;;;0.40;0.40;;;13.40;99.90;;;;;;5080723;28;20446;-75
2022/07/24 02:55:54;;;;;;;0.50;0.50;;;13.40;99.90;;;;;;5081163;28;20427;-76
2022/07/24 02:58:42;;;;;;;0.40;0.40;;;13.40;99.90;;;;;;5059755;28;20467;-76
2022/07/24 03:01:30;;;;;;;0.50;0.50;;;13.40;99.90;;;;;;5057971;28;20470;-75
2022/07/24 03:04:20;;;;;;;0.50;0.50;;;13.40;99.90;;;;;;5059212;28;20428;-73
2022/07/24 03:07:08;;;;;;;0.50;0.50;;;13.40;99.90;;;;;;5061299;28;20439;-75
2022/07/24 03:09:57;;;;;;;0.50;0.50;;;13.30;99.90;;;;;;5060666;28;20431;-77
2022/07/24 03:12:45;;;;;;;0.50;0.50;;;13.30;99.90;;;;;;5059685;28;20984;-76
2022/07/24 03:15:33;;;;;;;0.40;0.40;;;13.30;99.90;;;;;;5060473;28;20209;-73
2022/07/24 03:18:22;;;;;;;0.50;0.50;;;13.30;99.90;;;;;;5059499;28;20464;-76
2022/07/24 03:21:13;;;;;;;0.50;0.50;;;13.30;99.90;;;;;;5058667;28;20474;-74
2022/07/24 03:24:21;;;;;;;0.50;0.50;;;13.30;99.90;;;;;;5059983;28;20476;-73
2022/07/24 03:27:09;;;;;;;0.50;0.50;;;13.30;99.90;;;;;;5060886;28;20431;-75
2022/07/24 03:29:57;;;;;;;0.50;0.50;;;13.30;99.90;;;;;;5060854;28;20424;-74
2022/07/24 03:32:46;;;;;;;0.50;0.50;;;13.30;99.90;;;;;;5059555;28;20455;-74
2022/07/24 03:35:34;;;;;;;0.40;0.40;;;13.30;99.90;;;;;;5060119;28;20424;-75
2022/07/24 03:38:24;;;;;;;0.50;0.50;;;13.30;99.90;;;;;;5059690;28;20996;-73
2022/07/24 03:41:12;;;;;;;0.50;0.50;;;13.30;99.90;;;;;;5059149;28;20439;-72
2022/07/24 03:44:00;;;;;;;0.40;0.40;;;13.30;99.90;;;;;;5059879;28;20428;-76
2022/07/24 03:46:48;;;;;;;0.50;0.50;;;13.40;99.90;;;;;;5058244;28;20424;-76
2022/07/24 03:49:37;;;;;;;0.40;0.40;;;13.40;99.90;;;;;;5062456;28;20436;-77
2022/07/24 03:52:26;;;;;;;0.40;0.40;;;13.40;99.90;;;;;;5071711;28;20444;-72
2022/07/24 03:55:15;;;;;;;0.40;0.40;;;13.40;99.90;;;;;;5071212;28;21011;-71
2022/07/24 03:58:03;;;;;;;0.40;0.40;;;13.40;99.90;;;;;;5088271;28;20463;-73
2022/07/24 04:00:51;;;;;;;0.50;0.50;;;13.40;99.90;;;;;;5090211;28;20406;-75
2022/07/24 04:03:40;;;;;;;0.50;0.50;;;13.40;99.90;;;;;;5091152;28;20423;-72
2022/07/24 04:06:28;;;;;;;0.40;0.40;;;13.40;99.90;;;;;;5092031;28;20442;-76
2022/07/24 04:09:16;;;;;;;0.50;0.50;;;13.50;99.90;;;;;;5091632;28;20434;-73
2022/07/24 04:12:20;;;;;;;0.80;0.80;;;13.50;99.90;;;;;;5092069;28;20464;-76
2022/07/24 04:15:09;;;;;;;0.50;0.50;;;13.50;99.90;;;;;;5090951;28;20791;-75
2022/07/24 04:17:57;;;;;;;0.50;0.50;;;13.50;99.90;;;;;;5090240;28;20212;-75
2022/07/24 04:20:46;;;;;;;0.50;0.50;;;13.60;99.90;;;;;;5089971;28;20473;-73
2022/07/24 04:23:34;;;;;;;0.50;0.50;;;13.60;99.90;;;;;;5090205;28;20196;-73
2022/07/24 04:26:22;;;;;;;0.40;0.40;;;13.60;99.90;;;;;;5085986;28;20419;-75
2022/07/24 04:29:12;;;;;;;0.50;0.50;;;13.60;99.90;;;;;;5081793;28;20534;-70
2022/07/24 04:32:00;;;;;;;0.50;0.50;;;13.70;99.90;;;;;;5080376;28;20447;-74
2022/07/24 04:34:48;;;;;;;0.50;0.50;;;13.70;99.90;;;;;;5076298;28;20419;-74
2022/07/24 04:37:36;;;;;;;0.50;0.50;;;13.70;99.90;;;;;;5081681;28;20473;-75
2022/07/24 04:40:24;;;;;;;0.50;0.50;;;13.80;99.90;;;;;;5079313;28;20442;-71
2022/07/24 04:43:12;;;;;;;0.40;0.40;;;13.90;99.90;;;;;;5081139;28;20435;-71
2022/07/24 04:46:02;;;;;;;0.50;0.50;;;14.00;99.90;;;;;;5079170;28;20430;-73
2022/07/24 04:48:50;;;;;;;0.50;0.50;;;14.10;99.90;;;;;;5076642;28;20430;-74
2022/07/24 04:51:38;;;;;;;0.47;0.47;;;14.10;99.90;;;;;;5075149;28;20677;-77
2022/07/24 04:54:27;;;;;;;0.40;0.40;;;14.20;99.90;;;;;;5074706;28;20420;-77
2022/07/24 04:57:15;;;;;;;0.50;0.50;;;14.20;99.90;;;;;;5074220;28;20423;-74
2022/07/24 05:00:06;;;;;;;0.50;0.50;;;14.20;99.90;;;;;;5076588;28;20860;-76
2022/07/24 05:02:55;;;;;;;0.50;0.50;;;14.30;99.90;;;;;;5074380;28;20459;-71
2022/07/24 05:05:43;;;;;;;0.50;0.50;;;14.40;99.90;;;;;;5076231;28;20419;-71
2022/07/24 05:08:32;;;;;;;0.50;0.50;;;14.50;99.90;;;;;;5074441;28;20423;-71
2022/07/24 05:11:20;;;;;;;0.40;0.40;;;14.50;99.90;;;;;;5074280;28;20455;-72
2022/07/24 05:14:08;;;;;;;0.40;0.40;;;14.60;99.90;;;;;;5074099;28;20423;-71
2022/07/24 05:16:56;;;;;;;0.40;0.40;;;14.70;99.90;;;;;;5075341;28;20432;-72
2022/07/24 05:19:46;;;;;;;0.50;0.50;;;14.70;99.90;;;;;;5075030;28;20486;-72
2022/07/24 05:22:34;;;;;;;0.50;0.50;;;14.80;99.90;;;;;;5074383;28;20963;-70
2022/07/24 05:25:22;;;;;;;0.40;0.40;;;14.90;99.90;;;;;;5075523;28;20943;-73
2022/07/24 05:28:10;;;;;;;0.43;0.43;;;14.90;99.90;;;;;;5074009;28;20948;-73
2022/07/24 05:30:58;;;;;;;0.40;0.40;;;15.00;99.90;;;;;;5073693;28;20587;-71
2022/07/24 05:33:47;;;;;;;0.40;0.40;;;15.10;99.90;;;;;;5074551;28;20473;-73
2022/07/24 05:36:37;;;;;;;0.40;0.40;;;15.20;99.90;;;;;;5074816;28;20212;-72
2022/07/24 05:39:25;;;;;;;0.47;0.47;;;15.30;99.90;;;;;;5073562;28;20220;-71
2022/07/24 05:42:13;;;;;;;0.50;0.50;;;15.40;99.90;;;;;;5074082;28;20216;-71
2022/07/24 05:45:01;;;;;;;0.40;0.40;;;15.50;99.90;;;;;;5074340;28;20196;-71
2022/07/24 05:47:50;;;;;;;0.40;0.40;;;15.50;99.90;;;;;;5073571;28;20423;-73
2022/07/24 05:50:38;;;;;;;0.40;0.40;;;15.60;99.90;;;;;;5075041;28;20778;-72
2022/07/24 05:53:27;;;;;;;0.40;0.40;;;15.60;99.90;;;;;;5074193;28;20271;-72
2022/07/24 05:56:16;;;;;;;0.40;0.40;;;15.70;99.90;;;;;;5074675;28;20208;-73
2022/07/24 05:59:04;;;;;;;0.40;0.40;;;15.80;99.90;;;;;;5075126;28;20216;-71
2022/07/24 06:01:52;;;;;;;0.40;0.40;;;15.90;99.90;;;;;;5077935;28;20239;-72
2022/07/24 06:04:41;;;;;;;0.50;0.50;;;16.00;99.90;;;;;;5076636;28;20427;-72
2022/07/24 06:07:30;;;;;;;0.40;0.40;;;16.00;99.90;;;;;;5077450;28;20239;-72
2022/07/24 06:10:19;;;;;;;0.50;0.50;;;16.10;99.90;;;;;;5076852;28;20219;-72
2022/07/24 06:13:12;;;;;;;0.40;0.40;;;16.20;99.90;;;;;;5076013;28;20220;-72
2022/07/24 06:16:03;;;;;;;0.40;0.40;;;16.30;99.90;;;;;;5076418;28;20556;-72
2022/07/24 06:18:51;;;;;;;0.40;0.40;;;16.40;99.90;;;;;;5077089;28;20217;-72
2022/07/24 06:21:39;;;;;;;0.40;0.40;;;16.50;99.90;;;;;;5076213;28;20295;-73
2022/07/24 06:24:27;;;;;;;0.40;0.40;;;16.50;99.90;;;;;;5076131;28;20193;-74
2022/07/24 06:27:17;;;;;;;0.40;0.40;;;16.60;99.90;;;;;;5076225;28;20409;-73
2022/07/24 06:30:06;;;;;;;0.40;0.40;;;16.70;99.90;;;;;;5076069;28;20197;-73
2022/07/24 06:32:56;;;;;;;0.40;0.40;;;16.70;99.90;;;;;;5074752;28;20229;-73
2022/07/24 06:35:44;;;;;;;0.40;0.40;;;16.80;99.90;;;;;;5073547;28;20204;-72
2022/07/24 06:38:32;;;;;;;0.47;0.47;;;16.80;99.90;;;;;;5074396;28;20211;-72
2022/07/24 06:41:21;;;;;;;0.40;0.40;;;16.90;99.90;;;;;;5073660;28;20221;-73
2022/07/24 06:44:10;;;;;;;0.90;0.90;;;17.00;99.90;;;;;;5069901;28;20688;-74
2022/07/24 06:47:00;;;;;;;0.40;0.40;;;17.00;99.90;;;;;;5051920;28;20284;-76
2022/07/24 06:49:48;;;;;;;0.70;0.60;;;17.10;99.90;;;;;;5053102;28;20255;-76
2022/07/24 06:52:43;;;;;;;0.47;0.47;;;17.20;99.90;;;;;;5053173;28;20225;-78
2022/07/24 06:55:31;;;;;;;0.40;0.40;;;17.30;99.90;;;;;;5053908;28;20555;-76
2022/07/24 06:58:19;;;;;;;0.40;0.40;;;17.30;99.90;;;;;;5071400;28;20223;-75
2022/07/24 07:01:09;;;;;;;0.40;0.40;;;17.40;99.90;;;;;;5073074;28;20644;-75
2022/07/24 07:03:57;;;;;;;0.50;0.50;;;17.50;99.90;;;;;;5072813;28;20196;-75
2022/07/24 07:06:45;;;;;;;0.47;0.47;;;17.60;99.90;;;;;;5073084;28;20207;-78
2022/07/24 07:09:35;;;;;;;1.15;1.02;;;17.70;99.90;;;;;;5072569;28;20201;-78
2022/07/24 07:12:23;;;;;;;0.40;0.40;;;17.80;99.90;;;;;;5073733;28;20220;-76
2022/07/24 07:15:13;;;;;;;0.40;0.40;;;17.80;99.90;;;;;;5072527;28;20204;-77
2022/07/24 07:18:03;;;;;;;0.57;0.57;;;17.90;99.90;;;;;;5072410;28;20211;-76
2022/07/24 07:20:53;;;;;;;0.40;0.40;;;18.00;99.90;;;;;;5072299;28;20227;-81
2022/07/24 07:23:41;;;;;;;0.45;0.45;;;18.00;99.90;;;;;;5071900;28;20228;-75
2022/07/24 07:26:36;;;;;;;0.40;0.40;;;18.10;99.90;;;;;;5072617;28;20749;-81
2022/07/24 07:29:24;;;;;;;0.50;0.50;;;18.20;99.90;;;;;;5072271;28;20197;-75
2022/07/24 07:32:17;;;;;;;0.50;0.50;;;18.30;99.90;;;;;;5072373;28;20232;-79
2022/07/24 07:35:08;;;;;;;0.40;0.40;;;18.30;99.90;;;;;;5072712;28;20766;-78
2022/07/24 07:38:08;;;;;;;0.45;0.45;;;18.30;99.90;;;;;;5072305;28;20215;-77
2022/07/24 07:40:57;;;;;;;0.40;0.40;;;18.40;99.90;;;;;;5071697;28;20220;-74
2022/07/24 07:43:45;;;;;;;0.80;0.50;;;18.50;99.90;;;;;;5072215;28;20197;-74
2022/07/24 07:46:33;;;;;;;0.40;0.40;;;18.60;99.90;;;;;;5072148;28;20197;-76
2022/07/24 07:49:21;;;;;;;0.50;0.50;;;18.70;99.90;;;;;;5071421;28;20686;-77
2022/07/24 07:52:11;;;;;;;1.58;0.95;;;18.70;99.90;;;;;;5072089;28;20229;-78
2022/07/24 07:54:59;;;;;;;0.40;0.40;;;18.80;99.90;;;;;;5072671;28;20193;-78
2022/07/24 07:57:47;;;;;;;1.15;1.13;;;18.80;99.90;;;;;;5072099;28;20205;-74
2022/07/24 08:00:52;;;;;;;0.50;0.50;;;18.90;99.90;;;;;;5071310;28;20400;-73
2022/07/24 08:03:40;;;;;;;0.40;0.40;;;18.90;99.90;;;;;;5071447;28;20693;-75
2022/07/24 08:06:29;;;;;;;0.50;0.50;;;18.90;99.90;;;;;;5071901;28;20205;-81
2022/07/24 08:09:20;;;;;;;0.50;0.50;;;18.90;99.90;;;;;;5071393;28;20201;-76
2022/07/24 08:12:09;;;;;;;0.50;0.50;;;19.10;99.90;;;;;;5071856;28;20877;-81
2022/07/24 08:15:03;;;;;;;0.77;0.77;;;19.20;99.90;;;;;;5071659;28;20246;-76
2022/07/24 08:17:54;;;;;;;0.50;0.50;;;19.30;99.90;;;;;;5072582;28;20738;-72
2022/07/24 08:20:43;;;;;;;0.80;0.80;;;19.30;99.90;;;;;;5071392;28;20243;-76
2022/07/24 08:23:32;;;;;;;0.60;0.60;;;19.30;99.90;;;;;;5071211;28;20284;-77
2022/07/24 08:26:21;;;;;;;0.50;0.50;;;19.40;99.90;;;;;;5071095;28;20204;-77
2022/07/24 08:29:09;;;;;;;0.50;0.50;;;19.40;99.90;;;;;;5070758;28;20208;-77
2022/07/24 08:31:57;;;;;;;0.40;0.40;;;19.50;99.90;;;;;;5072665;28;20727;-79
2022/07/24 08:34:45;;;;;;;0.40;0.40;;;19.60;99.90;;;;;;5071905;28;20204;-76
2022/07/24 08:37:37;;;;;;;0.50;0.45;;;19.60;99.90;;;;;;5071815;28;20204;-74
2022/07/24 08:40:25;;;;;;;0.60;0.60;;;19.80;99.90;;;;;;5071136;28;20216;-76
2022/07/24 08:43:14;;;;;;;0.40;0.40;;;19.90;99.90;;;;;;5070777;28;20287;-75
2022/07/24 08:46:04;;;;;;;0.40;0.40;;;20.00;99.90;;;;;;5071515;28;20234;-77
2022/07/24 08:48:53;;;;;;;0.50;0.50;;;20.10;99.90;;;;;;5071390;28;20201;-75
2022/07/24 08:51:43;;;;;;;0.40;0.40;;;20.20;99.90;;;;;;5071367;28;20717;-81
2022/07/24 08:54:33;;;;;;;0.40;0.40;;;20.30;99.90;;;;;;5069247;28;20196;-78
2022/07/24 08:57:21;;;;;;;0.40;0.40;;;20.30;99.90;;;;;;5061043;28;20209;-76
2022/07/24 09:00:12;;;;;;;0.40;0.40;;;20.40;99.90;;;;;;5052009;28;20217;-74
2022/07/24 09:03:00;;;;;;;1.08;1.08;;;20.50;99.90;;;;;;5050272;28;20610;-75
2022/07/24 09:05:56;;;;;;;0.40;0.40;;;20.60;99.90;;;;;;5049688;28;20197;-75
2022/07/24 09:08:58;;;;;;;0.40;0.40;;;20.60;99.90;;;;;;5050895;28;20401;-76
2022/07/24 09:11:46;;;;;;;0.50;0.50;;;20.80;99.90;;;;;;5050319;28;20229;-79
2022/07/24 09:14:36;;;;;;;0.40;0.40;;;20.80;99.90;;;;;;5050532;28;20216;-75
2022/07/24 09:17:25;;;;;;;0.40;0.40;;;20.90;99.90;;;;;;5050000;28;20201;-76
2022/07/24 09:20:13;;;;;;;0.40;0.40;;;21.00;99.90;;;;;;5050739;28;20206;-75
2022/07/24 09:23:03;;;;;;;0.40;0.40;;;21.10;99.90;;;;;;5050619;28;20247;-75
2022/07/24 09:25:55;;;;;;;0.40;0.40;;;21.10;99.90;;;;;;5051060;28;20233;-73
2022/07/24 09:28:49;;;;;;;0.40;0.40;;;21.20;99.90;;;;;;5050212;28;20204;-74
2022/07/24 09:31:50;;;;;;;0.40;0.40;;;21.20;99.90;;;;;;5050038;28;20213;-73
2022/07/24 09:34:41;;;;;;;0.40;0.40;;;21.20;99.90;;;;;;5052283;28;20207;-75
2022/07/24 09:37:30;;;;;;;0.40;0.40;;;21.30;99.90;;;;;;5055185;28;20197;-73
2022/07/24 09:40:19;;;;;;;0.40;0.40;;;21.40;99.90;;;;;;5052983;28;20272;-74
2022/07/24 09:43:19;;;;;;;0.40;0.40;;;21.40;99.90;;;;;;5054418;28;20228;-75
2022/07/24 09:46:09;;;;;;;0.40;0.40;;;21.50;99.90;;;;;;5054637;28;20208;-79
2022/07/24 09:48:59;;;;;;;0.40;0.40;;;21.60;99.90;;;;;;5055220;28;20205;-76
2022/07/24 09:52:14;;;;;;;0.40;0.40;;;21.60;99.90;;;;;;5054374;28;20221;-74
2022/07/24 09:55:03;;;;;;;0.40;0.40;;;21.70;99.90;;;;;;5054540;28;20197;-79
2022/07/24 09:57:52;;;;;;;0.40;0.40;;;21.70;99.90;;;;;;5068438;28;20205;-78
2022/07/24 10:00:44;;;;;;;0.40;0.40;;;21.80;99.90;;;;;;5073649;28;20460;-77
2022/07/24 10:03:34;;;;;;;0.40;0.40;;;21.80;99.90;;;;;;5054431;28;20197;-75
2022/07/24 10:06:26;;;;;;;0.40;0.40;;;21.90;99.90;;;;;;5054193;28;20208;-79
2022/07/24 10:09:20;;;;;;;0.45;0.45;;;21.90;99.90;;;;;;5054544;28;20200;-74
2022/07/24 10:12:13;;;;;;;0.40;0.40;;;22.00;99.90;;;;;;5053721;28;20232;-75
2022/07/24 10:15:03;;;;;;;0.40;0.40;;;22.10;99.90;;;;;;5054979;28;20197;-80
2022/07/24 10:18:15;;;;;;;0.40;0.40;;;22.10;99.90;;;;;;5053860;28;20202;-75
2022/07/24 10:21:08;;;;;;;0.50;0.50;;;22.20;99.90;;;;;;5053025;28;20248;-76
2022/07/24 10:24:21;;;;;;;0.95;0.50;;;22.30;99.90;;;;;;5054285;28;20697;-78
2022/07/24 10:27:21;;;;;;;0.50;0.50;;;22.40;99.90;;;;;;5053282;28;20212;-75
2022/07/24 10:30:11;;;;;;;1.25;0.73;;;22.60;99.90;;;;;;5053939;28;20677;-78
2022/07/24 10:32:59;;;;;;;0.40;0.40;;;22.60;99.90;;;;;;5053367;28;20263;-74
2022/07/24 10:35:50;;;;;;;0.40;0.40;;;22.70;99.90;;;;;;5054040;28;20213;-73
2022/07/24 10:38:43;;;;;;;0.40;0.40;;;22.60;99.90;;;;;;5054174;28;20686;-72
2022/07/24 10:41:32;;;;;;;0.40;0.40;;;22.80;99.90;;;;;;5052751;28;20229;-72
2022/07/24 10:44:21;;;;;;;0.40;0.40;;;22.80;99.90;;;;;;5054341;28;20197;-73
2022/07/24 10:47:13;;;;;;;0.40;0.40;;;22.90;99.90;;;;;;5054454;28;20237;-73
2022/07/24 10:50:03;;;;;;;0.40;0.40;;;23.10;99.90;;;;;;5054231;28;20670;-71
2022/07/24 10:52:52;;;;;;;0.40;0.40;;;23.30;99.90;;;;;;5054699;28;20262;-71
2022/07/24 10:55:40;;;;;;;0.40;0.40;;;23.40;99.90;;;;;;5054603;28;20213;-73
2022/07/24 10:58:30;;;;;;;0.40;0.40;;;23.40;99.90;;;;;;5054351;28;20201;-73
2022/07/24 11:01:35;;;;;;;0.40;0.40;;;23.40;99.90;;;;;;5057161;28;20237;-72
2022/07/24 11:04:30;;;;;;;0.40;0.40;;;23.50;99.90;;;;;;5080586;23;20233;-70
2022/07/24 11:07:18;;;;;;;0.40;0.40;;;23.60;99.90;;;;;;5055887;28;20777;-70
2022/07/24 11:10:08;;;;;;;0.40;0.40;;;23.70;99.90;;;;;;5055536;28;20281;-70
2022/07/24 11:12:56;;;;;;;0.40;0.40;;;23.60;99.90;;;;;;5054729;28;20224;-70
2022/07/24 11:16:20;;;;;;;0.40;0.40;;;23.70;99.90;;;;;;5055262;28;20243;-70
2022/07/24 11:19:29;;;;;;;0.40;0.40;;;23.80;99.90;;;;;;5059678;28;20212;-69
2022/07/24 11:22:18;;;;;;;0.40;0.40;;;23.80;99.90;;;;;;5056981;28;20217;-70
2022/07/24 11:25:11;;;;;;;0.40;0.40;;;24.00;99.90;;;;;;5057790;28;20197;-70
2022/07/24 11:28:13;;;;;;;0.40;0.40;;;24.00;99.90;;;;;;5055686;28;20669;-70
2022/07/24 11:31:05;;;;;;;0.40;0.40;;;24.10;99.30;;;;;;5056901;28;20236;-69
2022/07/24 11:33:55;;;;;;;0.40;0.40;;;24.20;98.10;;;;;;5055835;28;20556;-70
2022/07/24 11:36:47;;;;;;;0.40;0.40;;;24.30;97.90;;;;;;5055449;28;20217;-70
2022/07/24 11:39:38;;;;;;;2.63;2.53;;;24.40;96.00;;;;;;5056308;28;20610;-69
2022/07/24 11:42:26;;;;;;;0.40;0.40;;;24.40;95.40;;;;;;5055990;28;20228;-70
2022/07/24 11:45:14;;;;;;;0.40;0.40;;;24.50;95.70;;;;;;5056004;28;20670;-70
2022/07/24 11:48:02;;;;;;;0.40;0.40;;;24.70;95.70;;;;;;5055894;28;20197;-70
2022/07/24 11:51:04;;;;;;;0.40;0.40;;;24.70;94.60;;;;;;5053503;28;20627;-70
2022/07/24 11:54:15;;;;;;;0.40;0.40;;;24.80;95.00;;;;;;5056649;28;20224;-70
2022/07/24 11:57:03;;;;;;;0.50;0.50;;;24.80;94.40;;;;;;5056728;28;20205;-70
2022/07/24 11:59:52;;;;;;;0.40;0.40;;;24.90;94.20;;;;;;5054193;28;20202;-70
2022/07/24 12:02:45;;;;;;;0.40;0.40;;;25.00;93.80;;;;;;5053835;28;20253;-70
2022/07/24 12:05:34;;;;;;;0.50;0.50;;;24.90;94.10;;;;;;5054242;28;20247;-70
2022/07/24 12:08:26;;;;;;;0.45;0.45;;;24.90;92.90;;;;;;5053370;28;20211;-70
2022/07/24 12:11:22;;;;;;;0.40;0.40;;;24.80;93.20;;;;;;5052761;28;20573;-70
2022/07/24 12:14:17;;;;;;;0.40;0.40;;;24.80;93.00;;;;;;5054350;28;20248;-69
2022/07/24 12:17:05;;;;;;;0.40;0.40;;;24.80;92.60;;;;;;5054500;28;20202;-70
2022/07/24 12:19:56;;;;;;;0.40;0.40;;;25.00;92.60;;;;;;5053788;28;20204;-70
2022/07/24 12:22:44;;;;;;;0.40;0.40;;;25.10;93.20;;;;;;5053964;28;20221;-70
2022/07/24 12:25:35;;;;;;;0.70;0.50;;;25.20;94.10;;;;;;5054723;28;20255;-70
2022/07/24 12:28:23;;;;;;;0.43;0.43;;;25.30;92.30;;;;;;5057059;28;20194;-71
2022/07/24 12:31:11;;;;;;;0.40;0.40;;;25.30;92.30;;;;;;5057751;28;20197;-70
2022/07/24 12:34:00;;;;;;;0.40;0.40;;;25.30;91.80;;;;;;5059731;28;20244;-70
2022/07/24 12:36:48;;;;;;;0.40;0.40;;;25.50;92.60;;;;;;5058450;28;20200;-70
2022/07/24 12:39:46;;;;;;;0.40;0.40;;;25.60;91.80;;;;;;5058169;28;20670;-69
2022/07/24 12:42:35;;;;;;;0.40;0.40;;;26.10;90.90;;;;;;5058643;28;20228;-70
2022/07/24 12:45:23;;;;;;;0.93;0.93;;;26.10;91.00;;;;;;5065757;28;20227;-70
2022/07/24 12:48:18;;;;;;;0.50;0.50;;;26.60;90.30;;;;;;5062836;28;20193;-70
2022/07/24 12:51:09;;;;;;;0.40;0.40;;;27.40;88.00;;;;;;5057859;28;20763;-70
2022/07/24 12:53:57;;;;;;;0.40;0.40;;;28.20;86.30;;;;;;5057733;28;20296;-71
2022/07/24 12:56:46;;;;;;;0.40;0.40;;;29.40;82.70;;;;;;5055491;28;20688;-71
2022/07/24 12:59:41;;;;;;;0.40;0.40;;;31.30;78.10;;;;;;5054692;28;20205;-71
2022/07/24 13:02:30;;;;;;;0.40;0.40;;;33.30;70.90;;;;;;5054916;28;20221;-71
2022/07/24 13:05:37;;;;;;;0.40;0.40;;;35.20;63.60;;;;;;5051813;28;20194;-70
2022/07/24 13:08:25;;;;;;;0.40;0.40;;;36.90;59.00;;;;;;5052478;28;20418;-71
2022/07/24 13:11:13;;;;;;;0.50;0.50;;;38.10;54.70;;;;;;5052144;28;20201;-71
2022/07/24 13:14:02;;;;;;;0.40;0.40;;;38.60;51.20;;;;;;5050881;28;20227;-71
2022/07/24 13:17:01;;;;;;;0.40;0.40;;;38.40;50.50;;;;;;5051203;28;20603;-71
2022/07/24 13:19:52;;;;;;;0.40;0.40;;;39.10;48.50;;;;;;5050933;28;20198;-71
2022/07/24 13:22:40;;;;;;;0.40;0.40;;;39.10;47.70;;;;;;5052215;28;20228;-70
2022/07/24 13:25:28;;;;;;;0.40;0.40;;;39.40;47.40;;;;;;5051508;28;20602;-70
2022/07/24 13:28:16;;;;;;;0.40;0.40;;;39.70;46.00;;;;;;5051155;28;20251;-70
2022/07/24 13:31:04;;;;;;;0.40;0.40;;;40.70;45.20;;;;;;5049957;28;20607;-71
2022/07/24 13:33:54;;;;;;;0.50;0.50;;;41.80;43.30;;;;;;5051246;28;20225;-70
2022/07/24 13:36:43;;;;;;;0.40;0.40;;;42.40;41.80;;;;;;5052250;28;20205;-70
2022/07/24 13:39:35;;;;;;;0.40;0.40;;;42.10;41.30;;;;;;5052559;28;20673;-70
2022/07/24 13:42:24;;;;;;;0.40;0.40;;;41.40;41.40;;;;;;5050499;28;20225;-70
2022/07/24 13:45:12;;;;;;;0.50;0.50;;;42.20;41.60;;;;;;5051286;28;20209;-70
2022/07/24 13:48:00;;;;;;;0.50;0.50;;;43.10;40.40;;;;;;5051346;28;20201;-71
2022/07/24 13:50:49;;;;;;;0.50;0.50;;;41.80;40.50;;;;;;5052206;28;20193;-70
2022/07/24 13:53:38;;;;;;;0.60;0.60;;;41.00;40.20;;;;;;5051903;28;20213;-70
2022/07/24 13:56:27;;;;;;;0.50;0.50;;;40.70;40.70;;;;;;5052002;28;20672;-70
2022/07/24 13:59:15;;;;;;;0.50;0.50;;;41.20;40.70;;;;;;5050369;28;20201;-71
2022/07/24 14:02:03;;;;;;;0.50;0.50;;;41.40;39.70;;;;;;5049589;28;20197;-71
2022/07/24 14:04:51;;;;;;;0.40;0.40;;;41.20;40.00;;;;;;5050237;28;20237;-72
2022/07/24 14:07:42;;;;;;;0.50;0.50;;;40.90;40.30;;;;;;5050783;28;20243;-71
2022/07/24 14:10:30;;;;;;;0.40;0.40;;;39.60;41.50;;;;;;5049713;28;20198;-70
2022/07/24 14:13:18;;;;;;;0.50;0.50;;;39.10;42.60;;;;;;5049563;28;20221;-70
2022/07/24 14:16:07;;;;;;;0.40;0.40;;;40.40;42.70;;;;;;5049746;28;20198;-71
2022/07/24 14:18:55;;;;;;;0.50;0.50;;;42.40;41.30;;;;;;5049409;28;20692;-71
2022/07/24 14:21:45;;;;;;;0.50;0.50;;;44.00;39.20;;;;;;5050637;28;20239;-70
2022/07/24 14:24:36;;;;;;;0.50;0.50;;;44.70;38.80;;;;;;5053413;28;20312;-71
2022/07/24 14:27:27;;;;;;;0.50;0.50;;;43.90;37.40;;;;;;5053226;28;20670;-71
2022/07/24 14:30:16;;;;;;;0.60;0.60;;;42.40;40.10;;;;;;5052734;28;20205;-70
2022/07/24 14:33:04;;;;;;;0.50;0.50;;;41.60;39.20;;;;;;5053247;28;20224;-72
2022/07/24 14:35:52;;;;;;;0.50;0.50;;;41.70;38.40;;;;;;5053628;28;20220;-71
2022/07/24 14:38:40;;;;;;;0.50;0.50;;;43.00;39.10;;;;;;5052872;28;20208;-73
2022/07/24 14:41:30;;;;;;;0.60;0.60;;;44.70;36.50;;;;;;5052679;28;20280;-74
2022/07/24 14:44:18;;;;;;;0.50;0.50;;;44.70;35.50;;;;;;5053628;28;20768;-72
2022/07/24 14:47:06;;;;;;;0.50;0.50;;;44.20;35.90;;;;;;5052841;28;20198;-69